PWSweather.com
Personal Weather Stations
Station Observations

AwhituWaiuku, CA 268400

Lat: -37.058, Lon: -174.6346

Elevation: 250

Station Type: Personal

http://www.weather-display.com/windy/gb/grahamsbeach.htm

High Low Average
Temperature 70.3°F21.3°C 61.4°F16.3°C 65.1°F18.4°C
Dew Point 59.8°F15.4°C 52.2°F11.2°C 57.4°F14.1°C
Winds 27.6 mph 44.4 kmh 11.5 mph 18.5 kmh 19.0 mph SW30.6 kmh SW
Wind Gusts 34.5 mph55.5 kmh 11.5 mph18.5 kmh 24.0 mph38.6 kmh
Humidity 89% 64% 77%
Pressure 30.09 in1019.0 mb 29.91 in1012.9 mb -
Precipitation 0.05 in1.3 mm - -
Hour Temp Dew Point Humidity Winds Wind Gusts Pressure Precip Precip Rate Daily Precip Total
12:00 AM 64.5°F18.1°C 57.8°F14.3°C 79% 25.3 mph W40.7 kmh W 26.5 mph42.6 kmh 29.92 in1013.2 mb - 0.00 in0.0 mm 0.00 in0.0 mm
12:30 AM 64.0°F17.8°C 58.7°F14.8°C 83% 25.3 mph WSW40.7 kmh WSW 28.8 mph46.3 kmh 29.92 in1013.2 mb - 0.00 in0.0 mm 0.00 in0.0 mm
01:00 AM 64.2°F17.9°C 58.9°F14.9°C 83% 27.6 mph W44.4 kmh W 34.5 mph55.5 kmh 29.92 in1013.2 mb - 0.00 in0.0 mm 0.00 in0.0 mm
01:30 AM 63.3°F17.4°C 58.7°F14.8°C 85% 26.5 mph WSW42.6 kmh WSW 33.4 mph53.8 kmh 29.92 in1013.2 mb - 0.00 in0.0 mm 0.00 in0.0 mm
02:00 AM 63.5°F17.5°C 57.9°F14.4°C 82% 23.0 mph WSW37.0 kmh WSW 26.5 mph42.6 kmh 29.91 in1012.9 mb - 0.00 in0.0 mm 0.00 in0.0 mm
02:30 AM 61.4°F16.3°C 58.1°F14.5°C 89% 19.6 mph W31.5 kmh W 19.6 mph31.5 kmh 29.91 in1012.9 mb - 0.03 in0.8 mm 0.03 in0.8 mm
03:00 AM 62.1°F16.7°C 58.5°F14.7°C 88% 23.0 mph WSW37.0 kmh WSW 25.3 mph40.7 kmh 29.92 in1013.2 mb - 0.00 in0.0 mm 0.03 in0.8 mm
03:30 AM 63.3°F17.4°C 57.4°F14.1°C 81% 24.2 mph WSW38.9 kmh WSW 32.2 mph51.8 kmh 29.92 in1013.2 mb - 0.00 in0.0 mm 0.03 in0.8 mm
04:00 AM 63.6°F17.6°C 57.7°F14.3°C 81% 25.3 mph WSW40.7 kmh WSW 32.2 mph51.8 kmh 29.92 in1013.2 mb - 0.00 in0.0 mm 0.03 in0.8 mm
04:30 AM 63.4°F17.4°C 57.1°F13.9°C 80% 21.9 mph WSW35.2 kmh WSW 27.6 mph44.4 kmh 29.93 in1013.5 mb - 0.00 in0.0 mm 0.03 in0.8 mm
05:00 AM 63.8°F17.7°C 56.4°F13.6°C 77% 17.3 mph WSW27.8 kmh WSW 27.6 mph44.4 kmh 29.93 in1013.5 mb - 0.00 in0.0 mm 0.03 in0.8 mm
05:30 AM 63.3°F17.4°C 55.3°F12.9°C 75% 17.3 mph WSW27.8 kmh WSW 19.6 mph31.5 kmh 29.94 in1013.9 mb - 0.00 in0.0 mm 0.03 in0.8 mm
06:00 AM 63.3°F17.4°C 55.6°F13.1°C 76% 17.3 mph WSW27.8 kmh WSW 21.9 mph35.2 kmh 29.94 in1013.9 mb - 0.00 in0.0 mm 0.03 in0.8 mm
06:30 AM 63.7°F17.6°C 56.3°F13.5°C 77% 21.9 mph WSW35.2 kmh WSW 26.5 mph42.6 kmh 29.94 in1013.9 mb - 0.00 in0.0 mm 0.03 in0.8 mm
07:00 AM 64.2°F17.9°C 57.5°F14.2°C 79% 23.0 mph WSW37.0 kmh WSW 29.9 mph48.1 kmh 29.95 in1014.2 mb - 0.00 in0.0 mm 0.03 in0.8 mm
07:30 AM 64.4°F18.0°C 58.8°F14.9°C 82% 27.6 mph WSW44.4 kmh WSW 27.6 mph44.4 kmh 29.96 in1014.6 mb - 0.00 in0.0 mm 0.03 in0.8 mm
08:30 AM 64.3°F17.9°C 59.4°F15.2°C 84% 19.6 mph WSW31.5 kmh WSW 26.5 mph42.6 kmh 29.98 in1015.2 mb - 0.00 in0.0 mm 0.03 in0.8 mm
09:00 AM 66.0°F18.9°C 59.3°F15.2°C 79% 21.9 mph WSW35.2 kmh WSW 26.5 mph42.6 kmh 29.98 in1015.2 mb - 0.00 in0.0 mm 0.03 in0.8 mm
09:30 AM 66.3°F19.1°C 59.6°F15.3°C 79% 19.6 mph WSW31.5 kmh WSW 20.7 mph33.3 kmh 29.99 in1015.6 mb - 0.00 in0.0 mm 0.03 in0.8 mm
10:00 AM 68.0°F20.0°C 59.8°F15.4°C 75% 13.8 mph SW22.2 kmh SW 19.6 mph31.5 kmh 30.00 in1015.9 mb - 0.00 in0.0 mm 0.03 in0.8 mm
10:30 AM 68.6°F20.3°C 58.4°F14.7°C 70% 16.1 mph SW25.9 kmh SW 19.6 mph31.5 kmh 30.00 in1015.9 mb - 0.00 in0.0 mm 0.03 in0.8 mm
11:00 AM 69.8°F21.0°C 58.8°F14.9°C 68% 15.0 mph SW24.1 kmh SW 20.7 mph33.3 kmh 30.00 in1015.9 mb - 0.00 in0.0 mm 0.03 in0.8 mm
11:30 AM 69.4°F20.8°C 59.2°F15.1°C 70% 17.3 mph SW27.8 kmh SW 24.2 mph38.9 kmh 30.00 in1015.9 mb - 0.00 in0.0 mm 0.03 in0.8 mm
12:00 PM 68.4°F20.2°C 59.4°F15.2°C 73% 18.4 mph SW29.6 kmh SW 25.3 mph40.7 kmh 30.00 in1015.9 mb - 0.00 in0.0 mm 0.03 in0.8 mm
12:30 PM 70.3°F21.3°C 58.8°F14.9°C 67% 13.8 mph SW22.2 kmh SW 18.4 mph29.6 kmh 30.00 in1015.9 mb - 0.00 in0.0 mm 0.03 in0.8 mm
01:00 PM 69.3°F20.7°C 57.0°F13.9°C 65% 18.4 mph SW29.6 kmh SW 24.2 mph38.9 kmh 30.00 in1015.9 mb - 0.00 in0.0 mm 0.03 in0.8 mm
01:30 PM 68.8°F20.4°C 59.4°F15.2°C 72% 18.4 mph SW29.6 kmh SW 24.2 mph38.9 kmh 30.00 in1015.9 mb - 0.00 in0.0 mm 0.03 in0.8 mm
02:00 PM 70.1°F21.2°C 57.4°F14.1°C 64% 18.4 mph SSW29.6 kmh SSW 23.0 mph37.0 kmh 30.00 in1015.9 mb - 0.00 in0.0 mm 0.03 in0.8 mm
02:30 PM 68.3°F20.2°C 57.7°F14.3°C 69% 15.0 mph WSW24.1 kmh WSW 19.6 mph31.5 kmh 30.00 in1015.9 mb - 0.00 in0.0 mm 0.03 in0.8 mm
03:00 PM 67.8°F19.9°C 57.2°F14.0°C 69% 18.4 mph WSW29.6 kmh WSW 26.5 mph42.6 kmh 30.00 in1015.9 mb - 0.00 in0.0 mm 0.03 in0.8 mm
03:30 PM 69.1°F20.6°C 58.5°F14.7°C 69% 17.3 mph SW27.8 kmh SW 26.5 mph42.6 kmh 29.99 in1015.6 mb - 0.00 in0.0 mm 0.03 in0.8 mm
04:00 PM 68.3°F20.2°C 57.3°F14.1°C 68% 16.1 mph WSW25.9 kmh WSW 21.9 mph35.2 kmh 29.99 in1015.6 mb - 0.00 in0.0 mm 0.03 in0.8 mm
04:30 PM 65.4°F18.6°C 58.8°F14.9°C 79% 16.1 mph SW25.9 kmh SW 24.2 mph38.9 kmh 29.99 in1015.6 mb - 0.00 in0.0 mm 0.03 in0.8 mm
05:00 PM 66.1°F18.9°C 59.0°F15.0°C 78% 20.7 mph WSW33.3 kmh WSW 27.6 mph44.4 kmh 30.00 in1015.9 mb - 0.00 in0.0 mm 0.03 in0.8 mm
05:30 PM 64.1°F17.8°C 58.1°F14.5°C 81% 19.6 mph SSW31.5 kmh SSW 25.3 mph40.7 kmh 30.01 in1016.3 mb - 0.00 in0.0 mm 0.03 in0.8 mm
06:00 PM 61.6°F16.4°C 58.0°F14.4°C 88% 15.0 mph SW24.1 kmh SW 17.3 mph27.8 kmh 30.02 in1016.6 mb - 0.02 in0.5 mm 0.05 in1.3 mm
06:30 PM 62.6°F17.0°C 58.7°F14.8°C 87% 13.8 mph SW22.2 kmh SW 20.7 mph33.3 kmh 30.03 in1016.9 mb - 0.00 in0.0 mm 0.05 in1.3 mm
07:00 PM 62.6°F17.0°C 57.7°F14.3°C 84% 15.0 mph SW24.1 kmh SW 20.7 mph33.3 kmh 30.04 in1017.3 mb - 0.00 in0.0 mm 0.05 in1.3 mm
07:30 PM 61.6°F16.4°C 58.0°F14.4°C 88% 11.5 mph WSW18.5 kmh WSW 16.1 mph25.9 kmh 30.05 in1017.6 mb - 0.00 in0.0 mm 0.05 in1.3 mm
08:00 PM 63.2°F17.3°C 56.9°F13.8°C 80% 18.4 mph SW29.6 kmh SW 26.5 mph42.6 kmh 30.06 in1017.9 mb - 0.00 in0.0 mm 0.05 in1.3 mm
08:30 PM 63.8°F17.7°C 56.4°F13.6°C 77% 17.3 mph SW27.8 kmh SW 19.6 mph31.5 kmh 30.07 in1018.3 mb - 0.00 in0.0 mm 0.05 in1.3 mm
09:00 PM 63.5°F17.5°C 54.7°F12.6°C 73% 16.1 mph SW25.9 kmh SW 23.0 mph37.0 kmh 30.07 in1018.3 mb - 0.00 in0.0 mm 0.05 in1.3 mm
09:30 PM 63.0°F17.2°C 53.8°F12.1°C 72% 15.0 mph SW24.1 kmh SW 21.9 mph35.2 kmh 30.08 in1018.6 mb - 0.00 in0.0 mm 0.05 in1.3 mm
10:00 PM 63.4°F17.4°C 54.6°F12.6°C 73% 13.8 mph S22.2 kmh S 19.6 mph31.5 kmh 30.09 in1019.0 mb - 0.00 in0.0 mm 0.05 in1.3 mm
10:30 PM 63.1°F17.3°C 52.8°F11.6°C 69% 12.7 mph SW20.4 kmh SW 16.1 mph25.9 kmh 30.09 in1019.0 mb - 0.00 in0.0 mm 0.05 in1.3 mm
11:00 PM 62.8°F17.1°C 52.5°F11.4°C 69% 12.7 mph SSW20.4 kmh SSW 11.5 mph18.5 kmh 30.09 in1019.0 mb - 0.00 in0.0 mm 0.05 in1.3 mm
11:30 PM 63.3°F17.4°C 52.2°F11.2°C 67% 15.0 mph SW24.1 kmh SW 18.4 mph29.6 kmh 30.09 in1019.0 mb - 0.00 in0.0 mm 0.05 in1.3 mm